Time;durP1;ratioP1;P1;durP2;ratioP2;P2;SDS_P1;SDS_P2;PMS_P1;PMS_P2;Temp;Humidity;BMP_temperature;BMP_pressure;BME280_temperature;BME280_humidity;BME280_pressure;Samples;Min_cycle;Max_cycle;Signal;HPM_P1;HPM_P2
2024/02/12 00:01:22;;;;;;;3.37;3.13;;;;;;;;;;5113546;28;20467;-65
2024/02/12 00:03:49;;;;;;;3.63;3.43;;;;;;;;;;5113559;28;20524;-65
2024/02/12 00:06:17;;;;;;;4.20;3.80;;;;;;;;;;5113457;28;20448;-66
2024/02/12 00:08:44;;;;;;;3.40;3.20;;;;;;;;;;5113337;28;20488;-65
2024/02/12 00:11:11;;;;;;;3.70;3.40;;;;;;;;;;5113251;28;20948;-65
2024/02/12 00:13:39;;;;;;;3.87;3.57;;;;;;;;;;5113519;28;20528;-65
2024/02/12 00:16:06;;;;;;;4.37;3.57;;;;;;;;;;5113478;28;20441;-65
2024/02/12 00:18:33;;;;;;;4.87;3.73;;;;;;;;;;5113257;28;20481;-66
2024/02/12 00:21:00;;;;;;;3.20;3.00;;;;;;;;;;5113348;28;20497;-65
2024/02/12 00:23:27;;;;;;;3.40;3.10;;;;;;;;;;5113259;28;20536;-65
2024/02/12 00:25:54;;;;;;;3.43;3.17;;;;;;;;;;5113158;28;20446;-65
2024/02/12 00:28:22;;;;;;;3.13;2.87;;;;;;;;;;5113405;28;20448;-65
2024/02/12 00:30:50;;;;;;;3.13;2.83;;;;;;;;;;5113231;28;20533;-65
2024/02/12 00:33:17;;;;;;;3.07;2.77;;;;;;;;;;5113380;28;20561;-65
2024/02/12 00:35:44;;;;;;;2.80;2.50;;;;;;;;;;5113152;28;20448;-65
2024/02/12 00:38:12;;;;;;;2.70;2.57;;;;;;;;;;5113062;28;20561;-65
2024/02/12 00:40:40;;;;;;;2.50;2.30;;;;;;;;;;5114806;28;20449;-65
2024/02/12 00:43:08;;;;;;;2.73;2.53;;;;;;;;;;5117230;28;20496;-65
2024/02/12 00:45:35;;;;;;;2.83;2.63;;;;;;;;;;5117204;28;20437;-65
2024/02/12 00:48:04;;;;;;;2.93;2.77;;;;;;;;;;5117036;28;20441;-65
2024/02/12 00:50:32;;;;;;;2.63;2.43;;;;;;;;;;5117003;28;20474;-65
2024/02/12 00:52:59;;;;;;;3.30;3.07;;;;;;;;;;5116759;28;20933;-65
2024/02/12 00:55:26;;;;;;;2.23;2.13;;;;;;;;;;5117046;28;20529;-65
2024/02/12 00:57:53;;;;;;;2.03;1.93;;;;;;;;;;5116906;28;20917;-65
2024/02/12 01:00:21;;;;;;;3.43;3.20;;;;;;;;;;5116815;28;20441;-65
2024/02/12 01:02:48;;;;;;;2.70;2.50;;;;;;;;;;5116755;28;20467;-65
2024/02/12 01:05:17;;;;;;;2.17;2.07;;;;;;;;;;5116651;28;20445;-65
2024/02/12 01:07:44;;;;;;;2.63;2.43;;;;;;;;;;5116550;28;20444;-65
2024/02/12 01:10:13;;;;;;;3.37;2.43;;;;;;;;;;5116671;28;20525;-65
2024/02/12 01:12:42;;;;;;;2.43;2.23;;;;;;;;;;5116656;28;20448;-65
2024/02/12 01:15:10;;;;;;;3.07;2.77;;;;;;;;;;5116498;28;20858;-65
2024/02/12 01:17:37;;;;;;;2.10;1.90;;;;;;;;;;5116373;28;20810;-65
2024/02/12 01:20:07;;;;;;;2.30;2.20;;;;;;;;;;5116353;28;20533;-65
2024/02/12 01:22:35;;;;;;;2.70;2.50;;;;;;;;;;5116515;28;20445;-66
2024/02/12 01:25:04;;;;;;;1.90;1.80;;;;;;;;;;5116442;28;20532;-65
2024/02/12 01:27:31;;;;;;;2.30;2.20;;;;;;;;;;5116291;28;20540;-65
2024/02/12 01:29:58;;;;;;;1.77;1.67;;;;;;;;;;5116217;28;20452;-65
2024/02/12 01:32:25;;;;;;;2.90;2.70;;;;;;;;;;5116015;28;20899;-65
2024/02/12 01:34:52;;;;;;;2.03;1.93;;;;;;;;;;5115984;28;20873;-65
2024/02/12 01:37:21;;;;;;;1.80;1.70;;;;;;;;;;5116186;28;20565;-65
2024/02/12 01:39:51;;;;;;;2.10;2.00;;;;;;;;;;5116109;28;20446;-65
2024/02/12 01:42:17;;;;;;;2.37;2.17;;;;;;;;;;5116037;28;20880;-65
2024/02/12 01:44:48;;;;;;;2.20;2.10;;;;;;;;;;5115974;28;20446;-65
2024/02/12 01:47:16;;;;;;;1.90;1.80;;;;;;;;;;5115837;28;20448;-65
2024/02/12 01:49:43;;;;;;;2.30;2.20;;;;;;;;;;5115738;28;20952;-65
2024/02/12 01:52:13;;;;;;;2.50;2.30;;;;;;;;;;5114845;28;20485;-65
2024/02/12 01:54:39;;;;;;;2.03;1.93;;;;;;;;;;5115795;28;20437;-65
2024/02/12 01:57:09;;;;;;;2.80;2.60;;;;;;;;;;5115635;28;20526;-65
2024/02/12 01:59:38;;;;;;;2.50;2.30;;;;;;;;;;5115607;28;20906;-65
2024/02/12 02:02:05;;;;;;;2.40;2.20;;;;;;;;;;5115708;28;20442;-65
2024/02/12 02:04:35;;;;;;;2.37;2.20;;;;;;;;;;5115470;28;20944;-65
2024/02/12 02:07:02;;;;;;;2.27;2.10;;;;;;;;;;5115549;28;20536;-65
2024/02/12 02:09:29;;;;;;;2.30;2.20;;;;;;;;;;5115484;28;20449;-65
2024/02/12 02:11:56;;;;;;;2.40;2.20;;;;;;;;;;5115510;28;20437;-65
2024/02/12 02:14:24;;;;;;;2.73;2.57;;;;;;;;;;5115355;28;20444;-65
2024/02/12 02:16:52;;;;;;;2.23;2.13;;;;;;;;;;5115484;28;20524;-65
2024/02/12 02:19:19;;;;;;;2.40;2.30;;;;;;;;;;5115316;28;20512;-65
2024/02/12 02:21:46;;;;;;;2.90;2.70;;;;;;;;;;5115316;28;20441;-65
2024/02/12 02:24:18;;;;;;;2.93;2.73;;;;;;;;;;5115173;28;20485;-65
2024/02/12 02:26:45;;;;;;;2.57;2.37;;;;;;;;;;5115043;28;20474;-65
2024/02/12 02:29:12;;;;;;;2.80;2.60;;;;;;;;;;5115222;28;20441;-65
2024/02/12 02:31:39;;;;;;;6.30;2.87;;;;;;;;;;5115157;28;20833;-65
2024/02/12 02:34:06;;;;;;;3.40;3.07;;;;;;;;;;5114753;28;20806;-65
2024/02/12 02:36:34;;;;;;;3.00;2.80;;;;;;;;;;5114943;28;20444;-65
2024/02/12 02:39:03;;;;;;;3.07;2.87;;;;;;;;;;5114755;28;20509;-65
2024/02/12 02:41:31;;;;;;;4.00;3.80;;;;;;;;;;5114748;28;20452;-65
2024/02/12 02:43:58;;;;;;;3.80;3.50;;;;;;;;;;5114891;28;20918;-65
2024/02/12 02:46:27;;;;;;;4.27;3.97;;;;;;;;;;5114803;28;20444;-65
2024/02/12 02:48:55;;;;;;;3.80;3.50;;;;;;;;;;5114675;28;20456;-65
2024/02/12 02:51:26;;;;;;;4.50;4.20;;;;;;;;;;5114626;28;20511;-65
2024/02/12 02:53:53;;;;;;;4.20;3.90;;;;;;;;;;5114480;28;20444;-65
2024/02/12 02:56:20;;;;;;;4.77;4.37;;;;;;;;;;5114646;28;20446;-66
2024/02/12 02:58:49;;;;;;;3.97;3.63;;;;;;;;;;5114488;28;20481;-66
2024/02/12 03:01:19;;;;;;;4.20;3.83;;;;;;;;;;5114478;28;20851;-65
2024/02/12 03:03:49;;;;;;;4.60;4.30;;;;;;;;;;5114141;28;20484;-65
2024/02/12 03:06:16;;;;;;;4.50;4.03;;;;;;;;;;5114284;28;20433;-65
2024/02/12 03:08:43;;;;;;;4.77;4.10;;;;;;;;;;5114472;28;20495;-65
2024/02/12 03:11:11;;;;;;;4.30;4.00;;;;;;;;;;5114366;28;20539;-65
2024/02/12 03:13:38;;;;;;;4.33;4.00;;;;;;;;;;5114324;28;20445;-65
2024/02/12 03:16:07;;;;;;;5.03;3.70;;;;;;;;;;5114179;28;20445;-65
2024/02/12 03:18:34;;;;;;;4.40;3.97;;;;;;;;;;5113999;28;20568;-65
2024/02/12 03:21:01;;;;;;;4.20;3.80;;;;;;;;;;5114006;28;20537;-65
2024/02/12 03:23:30;;;;;;;4.57;4.17;;;;;;;;;;5114139;28;20438;-65
2024/02/12 03:25:56;;;;;;;5.30;4.80;;;;;;;;;;5114092;28;20445;-65
2024/02/12 03:28:23;;;;;;;4.73;4.33;;;;;;;;;;5113911;28;20537;-65
2024/02/12 03:30:50;;;;;;;5.53;4.90;;;;;;;;;;5113890;28;20453;-65
2024/02/12 03:33:18;;;;;;;6.20;5.60;;;;;;;;;;5113551;28;20561;-65
2024/02/12 03:35:45;;;;;;;5.20;4.80;;;;;;;;;;5113997;28;20498;-65
2024/02/12 03:38:12;;;;;;;6.43;4.77;;;;;;;;;;5113759;28;20516;-65
2024/02/12 03:40:40;;;;;;;5.70;5.10;;;;;;;;;;5113880;28;20533;-65
2024/02/12 03:43:09;;;;;;;6.43;5.70;;;;;;;;;;5113743;28;20510;-65
2024/02/12 03:45:36;;;;;;;7.40;6.50;;;;;;;;;;5113685;28;20442;-65
2024/02/12 03:59:50;;;;;;;5.50;5.00;;;;;;;;;;5113524;28;20445;-65
2024/02/12 04:01:54;;;;;;;8.27;5.83;;;;;;;;;;5113571;28;20467;-65
2024/02/12 04:04:21;;;;;;;7.07;6.03;;;;;;;;;;5113475;28;20557;-65
2024/02/12 04:06:49;;;;;;;6.00;5.40;;;;;;;;;;5113353;28;20804;-65
2024/02/12 04:09:17;;;;;;;9.10;7.73;;;;;;;;;;5113493;28;20532;-65
2024/02/12 04:11:44;;;;;;;7.13;6.47;;;;;;;;;;5113450;28;20438;-65
2024/02/12 04:14:11;;;;;;;8.83;7.97;;;;;;;;;;5113393;28;20882;-65
2024/02/12 04:16:38;;;;;;;8.97;8.13;;;;;;;;;;5117121;28;20441;-65
2024/02/12 04:19:05;;;;;;;7.23;6.53;;;;;;;;;;5117340;28;20478;-65
2024/02/12 04:21:32;;;;;;;7.57;5.90;;;;;;;;;;5117727;28;20525;-65
2024/02/12 04:24:03;;;;;;;7.47;6.77;;;;;;;;;;5117609;28;20536;-65
2024/02/12 04:26:30;;;;;;;10.30;9.20;;;;;;;;;;5117544;28;20444;-65
2024/02/12 04:28:57;;;;;;;7.50;6.70;;;;;;;;;;5117440;28;20449;-65
2024/02/12 04:31:27;;;;;;;6.87;6.17;;;;;;;;;;5117294;28;20433;-65
2024/02/12 04:33:54;;;;;;;8.00;6.50;;;;;;;;;;5117046;28;20510;-65
2024/02/12 04:36:23;;;;;;;10.90;8.83;;;;;;;;;;5117363;28;20867;-65
2024/02/12 04:38:50;;;;;;;10.37;9.07;;;;;;;;;;5117197;28;20513;-65
2024/02/12 04:41:19;;;;;;;18.73;14.93;;;;;;;;;;5117223;28;20446;-65
2024/02/12 04:43:47;;;;;;;13.93;11.50;;;;;;;;;;5117175;28;20441;-65
2024/02/12 04:46:14;;;;;;;9.93;7.80;;;;;;;;;;5116980;28;20446;-65
2024/02/12 04:48:41;;;;;;;9.00;7.70;;;;;;;;;;5117176;28;20771;-65
2024/02/12 04:51:08;;;;;;;8.37;7.47;;;;;;;;;;5117134;28;20434;-65
2024/02/12 04:53:35;;;;;;;9.53;7.00;;;;;;;;;;5117005;28;20433;-65
2024/02/12 04:56:04;;;;;;;7.17;6.47;;;;;;;;;;5116937;28;20524;-65
2024/02/12 04:58:32;;;;;;;8.20;6.97;;;;;;;;;;5116743;28;20567;-65
2024/02/12 05:00:59;;;;;;;10.37;8.73;;;;;;;;;;5116627;28;21024;-65
2024/02/12 05:03:26;;;;;;;8.33;7.53;;;;;;;;;;5116951;28;20441;-65
2024/02/12 05:05:54;;;;;;;7.17;6.50;;;;;;;;;;5116764;28;20532;-65
2024/02/12 05:08:21;;;;;;;7.23;6.57;;;;;;;;;;5116743;28;21134;-65
2024/02/12 05:10:51;;;;;;;7.67;6.80;;;;;;;;;;5116583;28;20437;-65
2024/02/12 05:13:18;;;;;;;7.73;7.03;;;;;;;;;;5116445;28;20442;-65
2024/02/12 05:15:47;;;;;;;7.37;6.57;;;;;;;;;;5116675;28;20441;-65
2024/02/12 05:22:33;;;;;;;8.60;7.80;;;;;;;;;;5116323;28;20437;-65
2024/02/12 05:23:47;;;;;;;10.10;9.07;;;;;;;;;;5116314;28;20793;-65
2024/02/12 05:26:15;;;;;;;9.27;7.77;;;;;;;;;;5116016;28;21094;-65
2024/02/12 05:28:42;;;;;;;9.60;8.60;;;;;;;;;;5116370;28;20485;-65
2024/02/12 05:31:10;;;;;;;8.30;7.40;;;;;;;;;;5116177;28;20446;-65
2024/02/12 05:33:37;;;;;;;7.70;6.90;;;;;;;;;;5115996;28;20477;-65
2024/02/12 05:36:06;;;;;;;10.17;8.00;;;;;;;;;;5115979;28;20474;-65
2024/02/12 05:38:33;;;;;;;12.90;10.50;;;;;;;;;;5115870;28;20482;-65
2024/02/12 05:41:02;;;;;;;11.70;8.50;;;;;;;;;;5116120;28;20450;-65
2024/02/12 05:43:29;;;;;;;10.40;8.00;;;;;;;;;;5115989;28;20465;-65
2024/02/12 05:45:56;;;;;;;10.30;7.70;;;;;;;;;;5115948;28;20774;-65
2024/02/12 05:48:26;;;;;;;12.97;8.53;;;;;;;;;;5115835;28;20529;-65
2024/02/12 05:50:53;;;;;;;10.43;8.17;;;;;;;;;;5115761;28;20449;-65
2024/02/12 05:53:20;;;;;;;10.13;8.50;;;;;;;;;;5115870;28;20536;-65
2024/02/12 05:55:47;;;;;;;13.47;10.30;;;;;;;;;;5115669;28;20541;-65
2024/02/12 05:58:14;;;;;;;13.77;9.80;;;;;;;;;;5115656;28;20442;-65
2024/02/12 06:00:42;;;;;;;13.30;10.20;;;;;;;;;;5115611;28;20442;-65
2024/02/12 06:03:09;;;;;;;17.30;10.90;;;;;;;;;;5115413;28;20503;-65
2024/02/12 06:05:38;;;;;;;13.50;10.37;;;;;;;;;;5115323;28;20528;-65
2024/02/12 06:08:05;;;;;;;13.53;11.43;;;;;;;;;;5115588;28;20548;-65
2024/02/12 06:10:32;;;;;;;15.80;10.37;;;;;;;;;;5115524;28;20785;-65
2024/02/12 06:12:59;;;;;;;14.90;9.07;;;;;;;;;;5115382;28;20441;-65
2024/02/12 06:15:26;;;;;;;15.83;10.20;;;;;;;;;;5115378;28;20541;-65
2024/02/12 06:17:53;;;;;;;17.20;10.23;;;;;;;;;;5115100;28;20452;-65
2024/02/12 06:20:21;;;;;;;13.77;10.60;;;;;;;;;;5115290;28;20532;-65
2024/02/12 06:22:50;;;;;;;15.93;11.93;;;;;;;;;;5115329;28;20445;-65
2024/02/12 06:25:18;;;;;;;13.07;9.73;;;;;;;;;;5115200;28;20448;-65
2024/02/12 06:27:45;;;;;;;21.33;10.60;;;;;;;;;;5115015;28;20438;-66
2024/02/12 06:30:13;;;;;;;16.50;12.37;;;;;;;;;;5114685;28;20532;-65
2024/02/12 06:32:41;;;;;;;27.07;17.87;;;;;;;;;;5114118;28;20869;-65
2024/02/12 06:35:09;;;;;;;17.00;11.70;;;;;;;;;;5114700;28;20441;-65
2024/02/12 06:37:37;;;;;;;14.80;10.87;;;;;;;;;;5114008;28;20438;-65
2024/02/12 06:40:09;;;;;;;16.20;11.20;;;;;;;;;;5114331;28;20481;-65
2024/02/12 06:42:36;;;;;;;18.20;10.73;;;;;;;;;;5114554;28;20445;-65
2024/02/12 06:45:03;;;;;;;27.50;12.60;;;;;;;;;;5114490;28;20524;-65
2024/02/12 06:47:30;;;;;;;18.70;10.93;;;;;;;;;;5114798;28;20437;-65
2024/02/12 06:49:57;;;;;;;16.10;9.37;;;;;;;;;;5114761;28;20528;-65
2024/02/12 06:52:24;;;;;;;14.43;8.90;;;;;;;;;;5114484;28;20444;-65
2024/02/12 06:54:51;;;;;;;116.43;23.83;;;;;;;;;;5114472;28;20452;-65
2024/02/12 06:57:19;;;;;;;15.87;10.53;;;;;;;;;;5114251;28;20480;-65
2024/02/12 06:59:46;;;;;;;23.07;11.23;;;;;;;;;;5114439;28;20591;-67
2024/02/12 07:02:13;;;;;;;12.60;9.27;;;;;;;;;;5114196;28;20956;-67
2024/02/12 07:04:41;;;;;;;12.83;9.60;;;;;;;;;;5114416;28;20449;-66
2024/02/12 07:07:08;;;;;;;12.87;9.43;;;;;;;;;;5114343;28;20445;-66
2024/02/12 07:09:35;;;;;;;13.17;9.20;;;;;;;;;;5114274;28;20541;-67
2024/02/12 07:12:03;;;;;;;12.03;9.90;;;;;;;;;;5114087;28;20438;-67
2024/02/12 07:14:31;;;;;;;12.00;9.13;;;;;;;;;;5114286;28;20839;-67
2024/02/12 07:16:59;;;;;;;12.93;10.47;;;;;;;;;;5114282;28;20464;-67
2024/02/12 07:19:26;;;;;;;13.47;8.83;;;;;;;;;;5114101;28;20564;-67
2024/02/12 07:21:53;;;;;;;12.03;9.00;;;;;;;;;;5114005;28;20453;-64
2024/02/12 07:24:20;;;;;;;12.20;9.00;;;;;;;;;;5113981;28;20532;-64
2024/02/12 07:26:47;;;;;;;12.37;7.57;;;;;;;;;;5113816;28;20850;-65
2024/02/12 07:29:14;;;;;;;9.87;8.87;;;;;;;;;;5113898;28;20478;-65
2024/02/12 07:31:44;;;;;;;11.57;8.70;;;;;;;;;;5113808;28;20528;-65
2024/02/12 07:34:11;;;;;;;12.70;8.03;;;;;;;;;;5113908;28;20441;-65
2024/02/12 07:36:43;;;;;;;11.47;8.37;;;;;;;;;;5113833;28;20477;-65
2024/02/12 07:39:11;;;;;;;14.73;9.27;;;;;;;;;;5113629;28;20479;-64
2024/02/12 07:41:38;;;;;;;11.70;9.10;;;;;;;;;;5113934;28;20477;-64
2024/02/12 07:44:05;;;;;;;10.23;8.47;;;;;;;;;;5113712;28;20445;-65
2024/02/12 07:46:32;;;;;;;12.03;8.57;;;;;;;;;;5113575;28;20532;-65
2024/02/12 07:49:01;;;;;;;11.77;7.60;;;;;;;;;;5113137;28;20925;-65
2024/02/12 07:51:27;;;;;;;13.37;11.07;;;;;;;;;;5112870;28;20498;-65
2024/02/12 07:53:54;;;;;;;11.87;7.80;;;;;;;;;;5113387;28;20442;-65
2024/02/12 07:56:21;;;;;;;9.07;7.47;;;;;;;;;;5113661;28;21028;-65
2024/02/12 07:58:48;;;;;;;8.33;6.80;;;;;;;;;;5113492;28;20532;-65
2024/02/12 08:01:16;;;;;;;11.90;9.60;;;;;;;;;;5113287;28;20477;-65
2024/02/12 08:03:43;;;;;;;10.07;8.23;;;;;;;;;;5113330;28;20801;-65
2024/02/12 08:06:12;;;;;;;12.03;8.00;;;;;;;;;;5113253;28;20448;-64
2024/02/12 08:08:39;;;;;;;18.43;8.13;;;;;;;;;;5113366;28;20806;-65
2024/02/12 08:11:07;;;;;;;14.80;7.53;;;;;;;;;;5113114;28;20538;-65
2024/02/12 08:13:35;;;;;;;13.60;8.60;;;;;;;;;;5113119;28;20441;-65
2024/02/12 08:16:03;;;;;;;12.97;8.57;;;;;;;;;;5112819;28;20455;-65
2024/02/12 08:18:30;;;;;;;9.80;7.60;;;;;;;;;;5112845;28;20540;-69
2024/02/12 08:20:58;;;;;;;11.80;8.50;;;;;;;;;;5112621;28;20477;-67
2024/02/12 08:23:27;;;;;;;10.40;7.67;;;;;;;;;;5112804;28;20949;-65
2024/02/12 08:25:54;;;;;;;11.20;7.90;;;;;;;;;;5112943;28;20441;-64
2024/02/12 08:28:23;;;;;;;10.73;7.17;;;;;;;;;;5112969;28;20528;-66
2024/02/12 08:30:50;;;;;;;9.93;8.00;;;;;;;;;;5112636;28;20540;-65
2024/02/12 08:33:17;;;;;;;9.40;7.80;;;;;;;;;;5112624;28;20469;-66
2024/02/12 08:35:44;;;;;;;8.47;6.47;;;;;;;;;;5112693;28;20520;-68
2024/02/12 08:38:10;;;;;;;9.33;7.47;;;;;;;;;;5112945;28;20553;-66
2024/02/12 08:40:39;;;;;;;13.30;7.40;;;;;;;;;;5112713;28;20477;-66
2024/02/12 08:43:06;;;;;;;10.80;8.47;;;;;;;;;;5112670;28;20448;-64
2024/02/12 08:45:33;;;;;;;9.53;6.57;;;;;;;;;;5112611;28;20545;-71
2024/02/12 08:48:00;;;;;;;11.20;7.97;;;;;;;;;;5112476;28;20533;-67
2024/02/12 08:50:27;;;;;;;14.10;7.77;;;;;;;;;;5112777;28;20854;-65
2024/02/12 08:52:54;;;;;;;10.20;8.47;;;;;;;;;;5112731;28;20452;-68
2024/02/12 08:55:22;;;;;;;11.40;8.07;;;;;;;;;;5112994;28;20536;-66
2024/02/12 08:57:52;;;;;;;10.63;6.93;;;;;;;;;;5112458;28;20450;-67
2024/02/12 09:00:21;;;;;;;10.63;7.10;;;;;;;;;;5112676;28;20509;-68
2024/02/12 09:02:48;;;;;;;8.87;7.00;;;;;;;;;;5116532;28;20790;-59
2024/02/12 09:05:15;;;;;;;13.90;7.73;;;;;;;;;;5116649;28;20514;-60
2024/02/12 09:07:42;;;;;;;11.67;7.33;;;;;;;;;;5116685;28;20999;-68
2024/02/12 09:10:11;;;;;;;10.10;7.37;;;;;;;;;;5116494;28;20552;-66
2024/02/12 09:12:39;;;;;;;9.47;7.40;;;;;;;;;;5116343;28;20498;-68
2024/02/12 09:15:10;;;;;;;9.70;6.93;;;;;;;;;;5116253;28;20451;-69
2024/02/12 09:17:37;;;;;;;9.70;7.47;;;;;;;;;;5116501;28;20441;-71
2024/02/12 09:20:06;;;;;;;6.63;5.93;;;;;;;;;;5116310;28;20568;-65
2024/02/12 09:22:34;;;;;;;8.10;6.50;;;;;;;;;;5116119;28;20510;-62
2024/02/12 09:25:03;;;;;;;7.83;6.33;;;;;;;;;;5116135;28;20445;-62
2024/02/12 09:27:30;;;;;;;10.80;8.00;;;;;;;;;;5116078;28;20446;-67
2024/02/12 09:29:57;;;;;;;7.97;6.40;;;;;;;;;;5116219;28;20528;-67
2024/02/12 09:32:26;;;;;;;10.60;7.40;;;;;;;;;;5115819;28;20469;-65
2024/02/12 09:34:55;;;;;;;10.57;7.27;;;;;;;;;;5116256;28;20453;-65
2024/02/12 09:37:29;;;;;;;9.70;7.37;;;;;;;;;;5115993;28;20446;-65
2024/02/12 09:39:56;;;;;;;9.53;6.97;;;;;;;;;;5115754;28;20473;-66
2024/02/12 09:42:23;;;;;;;12.07;6.43;;;;;;;;;;5116084;28;20540;-66
2024/02/12 09:44:51;;;;;;;7.60;6.50;;;;;;;;;;5115539;28;20525;-67
2024/02/12 09:47:18;;;;;;;7.57;6.00;;;;;;;;;;5115847;28;20790;-65
2024/02/12 09:49:47;;;;;;;6.83;5.97;;;;;;;;;;5115857;28;20446;-68
2024/02/12 09:52:14;;;;;;;8.03;6.07;;;;;;;;;;5115668;28;20452;-66
2024/02/12 09:54:41;;;;;;;7.10;5.50;;;;;;;;;;5115629;28;20452;-65
2024/02/12 09:57:10;;;;;;;7.20;5.73;;;;;;;;;;5115448;28;20437;-65
2024/02/12 09:59:38;;;;;;;5.93;5.40;;;;;;;;;;5114709;28;20445;-65
2024/02/12 10:02:05;;;;;;;6.73;4.90;;;;;;;;;;5115562;28;20457;-65
2024/02/12 10:04:34;;;;;;;6.83;5.70;;;;;;;;;;5115415;28;20442;-65
2024/02/12 10:07:05;;;;;;;5.93;5.17;;;;;;;;;;5115015;28;20528;-65
2024/02/12 10:09:32;;;;;;;7.50;4.53;;;;;;;;;;5115338;28;20545;-66
2024/02/12 10:12:05;;;;;;;6.27;5.10;;;;;;;;;;5115013;28;20929;-62
2024/02/12 10:14:32;;;;;;;5.73;5.13;;;;;;;;;;5114643;28;20445;-66
2024/02/12 10:17:00;;;;;;;4.77;4.20;;;;;;;;;;5115204;28;20452;-68
2024/02/12 10:19:27;;;;;;;6.60;4.73;;;;;;;;;;5115004;28;20524;-69
2024/02/12 10:21:54;;;;;;;5.93;4.77;;;;;;;;;;5115015;28;20517;-64
2024/02/12 10:24:23;;;;;;;7.27;4.13;;;;;;;;;;5113557;28;20449;-66
2024/02/12 10:26:50;;;;;;;6.70;4.87;;;;;;;;;;5114131;28;20442;-66
2024/02/12 10:29:18;;;;;;;7.47;5.03;;;;;;;;;;5114999;28;20446;-65
2024/02/12 10:31:46;;;;;;;6.60;4.90;;;;;;;;;;5114818;28;20446;-66
2024/02/12 10:34:13;;;;;;;7.83;5.43;;;;;;;;;;5114796;28;20446;-68
2024/02/12 10:36:42;;;;;;;8.47;5.80;;;;;;;;;;5115073;28;20525;-65
2024/02/12 10:39:13;;;;;;;8.10;5.43;;;;;;;;;;5114878;28;20473;-65
2024/02/12 10:41:46;;;;;;;5.00;4.40;;;;;;;;;;5114861;28;20568;-64
2024/02/12 10:44:14;;;;;;;5.00;4.50;;;;;;;;;;5114600;28;20444;-65
2024/02/12 10:46:41;;;;;;;5.23;4.63;;;;;;;;;;5114451;28;20449;-66
2024/02/12 10:49:09;;;;;;;6.40;5.70;;;;;;;;;;5114575;28;20769;-65
2024/02/12 10:51:38;;;;;;;5.70;4.90;;;;;;;;;;5114217;28;20940;-64
2024/02/12 10:54:07;;;;;;;4.80;4.30;;;;;;;;;;5114377;28;20967;-64
2024/02/12 10:56:35;;;;;;;4.77;4.37;;;;;;;;;;5114515;28;20445;-65
2024/02/12 10:59:04;;;;;;;6.87;5.40;;;;;;;;;;5114258;28;20441;-64
2024/02/12 11:01:32;;;;;;;6.63;5.37;;;;;;;;;;5114472;28;20477;-68
2024/02/12 11:04:00;;;;;;;5.17;4.10;;;;;;;;;;5114455;28;20477;-68
2024/02/12 11:06:27;;;;;;;4.57;4.17;;;;;;;;;;5114324;28;20457;-66
2024/02/12 11:08:55;;;;;;;7.23;5.70;;;;;;;;;;5114284;28;20873;-75
2024/02/12 11:11:23;;;;;;;7.70;4.43;;;;;;;;;;5114184;28;20499;-67
2024/02/12 11:13:52;;;;;;;5.30;4.50;;;;;;;;;;5113999;28;20450;-71
2024/02/12 11:16:21;;;;;;;6.20;4.70;;;;;;;;;;5113845;28;20964;-72
2024/02/12 11:18:54;;;;;;;4.60;3.57;;;;;;;;;;5114186;28;20449;-64
2024/02/12 11:21:23;;;;;;;5.47;4.93;;;;;;;;;;5113956;28;20485;-68
2024/02/12 11:23:51;;;;;;;4.93;4.50;;;;;;;;;;5113745;28;20437;-67
2024/02/12 11:26:18;;;;;;;5.40;4.50;;;;;;;;;;5113835;28;20486;-67
2024/02/12 11:28:48;;;;;;;5.50;5.00;;;;;;;;;;5113885;28;20520;-66
2024/02/12 11:31:15;;;;;;;7.37;5.33;;;;;;;;;;5113882;28;20438;-64
2024/02/12 11:33:43;;;;;;;5.43;4.93;;;;;;;;;;5113488;28;20820;-71
2024/02/12 11:36:10;;;;;;;5.30;4.73;;;;;;;;;;5113690;28;20537;-69
2024/02/12 11:38:38;;;;;;;7.30;5.10;;;;;;;;;;5113536;28;20524;-67
2024/02/12 11:41:06;;;;;;;6.10;5.50;;;;;;;;;;5113368;28;20864;-64
2024/02/12 11:43:33;;;;;;;35.97;32.13;;;;;;;;;;5112784;28;20446;-64
2024/02/12 11:46:00;;;;;;;6.40;5.13;;;;;;;;;;5113535;28;20445;-64
2024/02/12 11:48:28;;;;;;;5.83;5.20;;;;;;;;;;5113454;28;20445;-64
2024/02/12 11:50:56;;;;;;;10.33;5.57;;;;;;;;;;5113322;28;20446;-64
2024/02/12 11:53:24;;;;;;;6.13;5.43;;;;;;;;;;5113333;28;20480;-67
2024/02/12 11:55:51;;;;;;;7.37;4.60;;;;;;;;;;5113457;28;20449;-67
2024/02/12 11:58:18;;;;;;;5.07;4.50;;;;;;;;;;5113378;28;20441;-65
2024/02/12 12:00:45;;;;;;;4.83;4.43;;;;;;;;;;5113323;28;20476;-77
2024/02/12 12:03:12;;;;;;;7.90;5.27;;;;;;;;;;5113201;28;20477;-65
2024/02/12 12:05:41;;;;;;;6.20;5.30;;;;;;;;;;5113211;28;20532;-66
2024/02/12 12:08:10;;;;;;;5.30;4.80;;;;;;;;;;5113142;28;20975;-71
2024/02/12 12:10:37;;;;;;;6.30;5.33;;;;;;;;;;5113328;28;20453;-73
2024/02/12 12:13:04;;;;;;;6.63;4.93;;;;;;;;;;5113307;28;20480;-70
2024/02/12 12:15:32;;;;;;;8.03;5.60;;;;;;;;;;5113070;28;20524;-67
2024/02/12 12:17:59;;;;;;;6.80;6.10;;;;;;;;;;5111388;28;20514;-67
2024/02/12 12:20:29;;;;;;;8.20;6.03;;;;;;;;;;5112766;28;20932;-66
2024/02/12 12:22:56;;;;;;;7.13;5.60;;;;;;;;;;5113205;28;20446;-67
2024/02/12 12:25:24;;;;;;;8.40;6.30;;;;;;;;;;5111177;28;20851;-65
2024/02/12 12:27:52;;;;;;;6.33;5.63;;;;;;;;;;5111891;28;20476;-61
2024/02/12 12:30:19;;;;;;;6.57;5.33;;;;;;;;;;5112158;28;20442;-64
2024/02/12 12:32:48;;;;;;;7.23;5.30;;;;;;;;;;5111693;28;20497;-64
2024/02/12 12:35:15;;;;;;;6.37;5.20;;;;;;;;;;5111852;28;20437;-65
2024/02/12 12:37:42;;;;;;;5.87;5.27;;;;;;;;;;5116791;28;20528;-65
2024/02/12 12:40:11;;;;;;;8.10;5.57;;;;;;;;;;5117135;28;20533;-64
2024/02/12 12:42:40;;;;;;;5.43;4.93;;;;;;;;;;5116836;28;20478;-65
2024/02/12 12:45:10;;;;;;;5.70;4.37;;;;;;;;;;5116748;28;20471;-65
2024/02/12 12:47:37;;;;;;;6.00;5.40;;;;;;;;;;5116602;28;20453;-66
2024/02/12 12:50:06;;;;;;;6.97;5.57;;;;;;;;;;5116651;28;20949;-65
2024/02/12 12:52:33;;;;;;;6.90;5.40;;;;;;;;;;5116671;28;20453;-64
2024/02/12 12:55:00;;;;;;;5.73;5.13;;;;;;;;;;5116823;28;20442;-64
2024/02/12 12:57:27;;;;;;;6.50;5.13;;;;;;;;;;5116581;28;20562;-62
2024/02/12 12:59:57;;;;;;;6.20;5.30;;;;;;;;;;5116567;28;20463;-63
2024/02/12 13:02:24;;;;;;;5.13;4.63;;;;;;;;;;5116702;28;20473;-61
2024/02/12 13:04:51;;;;;;;9.23;5.43;;;;;;;;;;5116718;28;20575;-62
2024/02/12 13:07:18;;;;;;;5.93;5.43;;;;;;;;;;5116435;28;20445;-63
2024/02/12 13:09:45;;;;;;;5.70;5.10;;;;;;;;;;5116471;28;20490;-62
2024/02/12 13:12:12;;;;;;;8.10;5.83;;;;;;;;;;5116425;28;20442;-61
2024/02/12 13:14:43;;;;;;;9.07;6.20;;;;;;;;;;5116278;28;20494;-63
2024/02/12 13:17:11;;;;;;;7.17;6.40;;;;;;;;;;5116538;28;20494;-62
2024/02/12 13:19:38;;;;;;;8.50;5.60;;;;;;;;;;5116380;28;20445;-63
2024/02/12 13:22:07;;;;;;;6.83;5.30;;;;;;;;;;5116245;28;20925;-62
2024/02/12 13:24:34;;;;;;;6.50;5.80;;;;;;;;;;5116171;28;20491;-63
2024/02/12 13:27:01;;;;;;;6.03;5.43;;;;;;;;;;5115982;28;20448;-69
2024/02/12 13:29:29;;;;;;;7.70;5.77;;;;;;;;;;5116271;28;20825;-67
2024/02/12 13:31:56;;;;;;;6.70;5.93;;;;;;;;;;5116028;28;20446;-66
2024/02/12 13:34:25;;;;;;;8.93;4.67;;;;;;;;;;5116165;28;20448;-66
2024/02/12 13:36:53;;;;;;;5.57;4.97;;;;;;;;;;5115973;28;20867;-65
2024/02/12 13:39:20;;;;;;;5.57;4.70;;;;;;;;;;5115998;28;20446;-64
2024/02/12 13:41:47;;;;;;;5.30;4.80;;;;;;;;;;5115487;28;20976;-63
2024/02/12 13:44:14;;;;;;;7.00;4.70;;;;;;;;;;5115891;28;20801;-63
2024/02/12 13:46:42;;;;;;;5.93;4.70;;;;;;;;;;5115739;28;20441;-61
2024/02/12 13:49:09;;;;;;;7.10;6.40;;;;;;;;;;5114574;28;20464;-65
2024/02/12 13:51:38;;;;;;;9.53;5.80;;;;;;;;;;5115619;28;20544;-65
2024/02/12 13:54:07;;;;;;;6.53;5.70;;;;;;;;;;5115568;28;20522;-67
2024/02/12 13:56:34;;;;;;;7.40;6.10;;;;;;;;;;5115771;28;20528;-65
2024/02/12 13:59:01;;;;;;;8.13;7.30;;;;;;;;;;5115233;28;20442;-66
2024/02/12 14:01:30;;;;;;;7.20;5.80;;;;;;;;;;5115500;28;20477;-66
2024/02/12 14:03:57;;;;;;;9.50;5.73;;;;;;;;;;5115418;28;20484;-66
2024/02/12 14:06:24;;;;;;;7.37;5.93;;;;;;;;;;5115456;28;20813;-66
2024/02/12 14:08:53;;;;;;;7.37;5.37;;;;;;;;;;5115329;28;20448;-66
2024/02/12 14:11:20;;;;;;;5.80;4.70;;;;;;;;;;5115087;28;20495;-64
2024/02/12 14:13:48;;;;;;;4.97;4.47;;;;;;;;;;5113285;28;20453;-65
2024/02/12 14:16:16;;;;;;;6.03;4.60;;;;;;;;;;5113083;28;20477;-64
2024/02/12 14:18:43;;;;;;;4.47;3.47;;;;;;;;;;5113192;28;20438;-64
2024/02/12 14:21:10;;;;;;;3.73;3.20;;;;;;;;;;5113468;28;20622;-65
2024/02/12 14:23:37;;;;;;;3.00;2.80;;;;;;;;;;5113229;28;20460;-64
2024/02/12 14:26:07;;;;;;;3.70;3.37;;;;;;;;;;5113341;28;20472;-65
2024/02/12 14:28:34;;;;;;;2.90;2.60;;;;;;;;;;5115106;28;20446;-65
2024/02/12 14:31:01;;;;;;;3.50;3.20;;;;;;;;;;5114950;28;20446;-64
2024/02/12 14:33:28;;;;;;;4.10;3.80;;;;;;;;;;5114683;28;20465;-66
2024/02/12 14:35:54;;;;;;;3.30;3.00;;;;;;;;;;5114837;28;20532;-66
2024/02/12 14:38:24;;;;;;;3.00;2.70;;;;;;;;;;5115095;28;20536;-66
2024/02/12 14:40:52;;;;;;;3.90;3.60;;;;;;;;;;5114891;28;20448;-66
2024/02/12 14:43:21;;;;;;;3.77;3.47;;;;;;;;;;5114701;28;20481;-66
2024/02/12 14:45:49;;;;;;;4.13;3.83;;;;;;;;;;5114656;28;20525;-66
2024/02/12 14:48:16;;;;;;;3.97;3.10;;;;;;;;;;5114669;28;20851;-66
2024/02/12 14:50:43;;;;;;;6.10;3.27;;;;;;;;;;5114409;28;20446;-66
2024/02/12 14:53:10;;;;;;;3.30;3.03;;;;;;;;;;5114770;28;20450;-67
2024/02/12 14:55:38;;;;;;;4.77;4.17;;;;;;;;;;5114565;28;20537;-66